createdAt,value
2022-09-17T00:03:35.819Z,12
2022-09-17T00:08:35.990Z,11.9
2022-09-17T00:13:36.115Z,11.9
2022-09-17T00:18:36.362Z,11.8
2022-09-17T00:23:36.517Z,11.8
2022-09-17T00:28:36.692Z,11.9
2022-09-17T00:33:35.649Z,11.9
2022-09-17T00:38:35.889Z,11.9
2022-09-17T00:43:36.132Z,11.9
2022-09-17T00:48:36.183Z,11.8
2022-09-17T00:53:36.259Z,11.8
2022-09-17T00:58:41.599Z,11.8
2022-09-17T01:03:36.121Z,11.8
2022-09-17T01:08:36.354Z,11.7
2022-09-17T01:13:36.473Z,11.7
2022-09-17T01:18:36.571Z,11.6
2022-09-17T01:23:36.717Z,11.6
2022-09-17T01:28:35.875Z,11.4
2022-09-17T01:33:36.086Z,11.4
2022-09-17T01:38:36.418Z,11.4
2022-09-17T01:43:36.469Z,11.4
2022-09-17T01:48:36.691Z,11.4
2022-09-17T01:53:36.199Z,11.4
2022-09-17T01:58:36.592Z,11.4
2022-09-17T02:03:36.064Z,11.4
2022-09-17T02:08:36.270Z,11.4
2022-09-17T02:13:36.384Z,11.4
2022-09-17T02:18:36.637Z,11.3
2022-09-17T02:23:36.005Z,11.3
2022-09-17T02:28:36.214Z,11.3
2022-09-17T02:33:36.521Z,11.3
2022-09-17T02:38:35.902Z,11.4
2022-09-17T02:43:36.174Z,11.4
2022-09-17T02:48:36.724Z,11.4
2022-09-17T02:53:36.308Z,11.4
2022-09-17T02:58:36.513Z,11.3
2022-09-17T03:03:37.042Z,11.3
2022-09-17T03:08:36.318Z,11.3
2022-09-17T03:13:35.979Z,11.3
2022-09-17T03:18:36.353Z,11.3
2022-09-17T03:23:36.601Z,11.3
2022-09-17T03:28:36.162Z,11.3
2022-09-17T03:33:36.485Z,11.3
2022-09-17T03:38:36.230Z,11.3
2022-09-17T03:43:35.925Z,11.3
2022-09-17T03:48:36.080Z,11.3
2022-09-17T03:53:36.148Z,11.3
2022-09-17T03:58:36.631Z,11.2
2022-09-17T04:03:35.929Z,11.2
2022-09-17T04:08:36.266Z,11.1
2022-09-17T04:13:36.961Z,11.1
2022-09-17T04:18:36.341Z,10.9
2022-09-17T04:23:36.619Z,10.9
2022-09-17T04:28:35.932Z,10.9
2022-09-17T04:33:36.414Z,10.9
2022-09-17T04:38:36.617Z,10.9
2022-09-17T04:43:35.913Z,10.9
2022-09-17T04:48:36.158Z,10.8
2022-09-17T04:53:36.436Z,10.8
2022-09-17T04:58:36.749Z,10.8
2022-09-17T05:03:35.840Z,10.8
2022-09-17T05:08:36.103Z,10.7
2022-09-17T05:13:36.502Z,10.7
2022-09-17T05:18:36.179Z,10.7
2022-09-17T05:23:36.961Z,10.7
2022-09-17T05:28:36.163Z,10.7
2022-09-17T05:33:36.569Z,10.7
2022-09-17T05:38:36.994Z,10.7
2022-09-17T05:43:36.189Z,10.7
2022-09-17T05:48:36.375Z,10.8
2022-09-17T05:53:36.655Z,10.8
2022-09-17T05:58:36.754Z,10.8
2022-09-17T06:03:35.871Z,10.8
2022-09-17T06:08:36.288Z,10.8
2022-09-17T06:13:36.499Z,10.8
2022-09-17T06:18:36.737Z,10.7
2022-09-17T06:23:35.962Z,10.7
2022-09-17T06:28:42.024Z,10.7
2022-09-17T06:33:36.180Z,10.7
2022-09-17T06:38:36.552Z,10.6
2022-09-17T06:43:36.860Z,10.6
2022-09-17T06:48:36.148Z,10.5
2022-09-17T06:53:36.555Z,10.5
2022-09-17T06:58:36.997Z,11.1
2022-09-17T07:03:36.291Z,11.1
2022-09-17T07:08:36.022Z,11.5
2022-09-17T07:13:36.389Z,11.5
2022-09-17T07:18:36.864Z,12
2022-09-17T07:23:36.769Z,12
2022-09-17T07:28:36.874Z,11.8
2022-09-17T07:33:36.182Z,11.8
2022-09-17T07:38:36.470Z,11.6
2022-09-17T07:43:36.820Z,11.6
2022-09-17T07:48:36.171Z,11.6
2022-09-17T07:53:36.438Z,11.6
2022-09-17T07:58:36.610Z,12.2
2022-09-17T08:03:36.904Z,12.2
2022-09-17T08:08:36.165Z,12.8
2022-09-17T08:13:36.470Z,12.8
2022-09-17T08:18:36.758Z,12.7
2022-09-17T08:23:36.129Z,12.7
2022-09-17T08:28:36.253Z,12
2022-09-17T08:33:36.477Z,12
2022-09-17T08:38:38.692Z,12
2022-09-17T08:43:36.888Z,12
2022-09-17T08:48:36.281Z,12.6
2022-09-17T08:53:36.951Z,12.6
2022-09-17T08:58:36.240Z,12.9
2022-09-17T09:03:36.701Z,12.9
2022-09-17T09:08:36.991Z,13.1
2022-09-17T09:13:36.549Z,13.1
2022-09-17T09:18:36.710Z,12.7
2022-09-17T09:23:36.166Z,12.7
2022-09-17T09:28:36.654Z,13
2022-09-17T09:33:36.889Z,13
2022-09-17T09:38:36.236Z,13.2
2022-09-17T09:44:04.463Z,13.2
2022-09-17T09:48:36.504Z,13.3
2022-09-17T09:53:36.957Z,13.3
2022-09-17T09:58:36.240Z,12.8
2022-09-17T10:03:36.580Z,12.8
2022-09-17T10:08:36.881Z,13
2022-09-17T10:13:36.381Z,13
2022-09-17T10:18:36.635Z,13
2022-09-17T10:23:36.686Z,13
2022-09-17T10:28:36.837Z,13.2
2022-09-17T10:33:36.385Z,13.2
2022-09-17T10:38:36.700Z,12.8
2022-09-17T10:43:37.037Z,12.8
2022-09-17T10:48:36.376Z,12.6
2022-09-17T10:53:36.758Z,12.6
2022-09-17T10:58:42.594Z,12.8
2022-09-17T11:03:36.942Z,12.8
2022-09-17T11:08:36.401Z,12.3
2022-09-17T11:13:36.716Z,12.3
2022-09-17T11:18:36.983Z,12.7
2022-09-17T11:23:36.183Z,12.7
2022-09-17T11:28:36.633Z,13.4
2022-09-17T11:33:36.830Z,13.4
2022-09-17T11:38:37.089Z,13.2
2022-09-17T11:43:36.580Z,13.2
2022-09-17T11:48:36.854Z,13
2022-09-17T11:53:37.103Z,13
2022-09-17T11:58:36.424Z,12.8
2022-09-17T12:03:36.530Z,12.8
2022-09-17T12:08:36.753Z,12.9
2022-09-17T12:13:37.013Z,12.9
2022-09-17T12:18:37.046Z,13.1
2022-09-17T12:23:36.181Z,13.1
2022-09-17T12:28:37.059Z,13
2022-09-17T12:33:36.291Z,13
2022-09-17T12:38:36.488Z,13.2
2022-09-17T12:43:36.659Z,13.2
2022-09-17T12:48:37.000Z,13.7
2022-09-17T12:53:37.093Z,13.7
2022-09-17T12:58:36.478Z,14.2
2022-09-17T13:03:36.667Z,14.2
2022-09-17T13:08:36.869Z,14.3
2022-09-17T13:13:36.299Z,14.3
2022-09-17T13:18:36.442Z,13.6
2022-09-17T13:23:36.618Z,13.6
2022-09-17T13:28:36.841Z,12.8
2022-09-17T13:33:37.006Z,12.8
2022-09-17T13:38:36.353Z,12.7
2022-09-17T13:43:36.577Z,12.7
2022-09-17T13:48:36.723Z,12.8
2022-09-17T13:53:36.958Z,12.8
2022-09-17T13:58:37.111Z,13.4
2022-09-17T14:03:36.220Z,13.4
2022-09-17T14:08:36.359Z,13.8
2022-09-17T14:13:36.899Z,13.8
2022-09-17T14:18:36.251Z,13.6
2022-09-17T14:23:36.355Z,13.6
2022-09-17T14:28:36.733Z,13.7
2022-09-17T14:33:36.835Z,13.7
2022-09-17T14:38:37.178Z,13.5
2022-09-17T14:43:36.420Z,13.5
2022-09-17T14:48:36.765Z,12.5
2022-09-17T14:53:36.804Z,12.5
2022-09-17T14:58:36.258Z,12
2022-09-17T15:03:36.827Z,12
2022-09-17T15:08:36.794Z,11.9
2022-09-17T15:13:36.385Z,11.9
2022-09-17T15:18:37.119Z,12.1
2022-09-17T15:23:36.434Z,12.1
2022-09-17T15:28:36.375Z,12.1
2022-09-17T15:33:36.275Z,12.1
2022-09-17T15:38:36.959Z,12
2022-09-17T15:43:36.205Z,12
2022-09-17T15:48:36.851Z,11.8
2022-09-17T15:53:37.481Z,11.8
2022-09-17T15:58:36.668Z,11.7
2022-09-17T16:03:36.455Z,11.7
2022-09-17T16:08:37.254Z,11.8
2022-09-17T16:13:36.478Z,11.8
2022-09-17T16:18:36.766Z,11.8
2022-09-17T16:23:37.157Z,11.8
2022-09-17T16:28:36.404Z,11.8
2022-09-17T16:33:36.773Z,11.8
2022-09-17T16:38:37.119Z,11.8
2022-09-17T16:43:37.411Z,11.8
2022-09-17T16:48:36.511Z,11.8
2022-09-17T16:53:36.943Z,11.8
2022-09-17T16:58:37.291Z,11.7
2022-09-17T17:03:36.438Z,11.7
2022-09-17T17:08:36.607Z,11.7
2022-09-17T17:13:36.784Z,11.7
2022-09-17T17:18:36.968Z,11.6
2022-09-17T17:23:37.246Z,11.6
2022-09-17T17:28:36.438Z,11.4
2022-09-17T17:33:36.719Z,11.4
2022-09-17T17:38:36.852Z,11.3
2022-09-17T17:43:37.066Z,11.3
2022-09-17T17:48:36.717Z,11.2
2022-09-17T17:53:36.847Z,11.2
2022-09-17T17:58:37.041Z,11.2
2022-09-17T18:03:37.194Z,11.2
2022-09-17T18:08:36.445Z,11.2
2022-09-17T18:13:36.909Z,11.2
2022-09-17T18:18:44.948Z,11.2
2022-09-17T18:23:36.572Z,11.2
2022-09-17T18:28:36.636Z,11.2
2022-09-17T18:33:36.781Z,11.2
2022-09-17T18:38:37.113Z,11.2
2022-09-17T18:43:36.345Z,11.2
2022-09-17T18:48:36.975Z,11.2
2022-09-17T18:53:37.124Z,11.2
2022-09-17T18:58:36.449Z,11.3
2022-09-17T19:03:36.761Z,11.3
2022-09-17T19:08:36.980Z,11.3
2022-09-17T19:13:36.980Z,11.3
2022-09-17T19:18:37.056Z,11.5
2022-09-17T19:23:36.433Z,11.5
2022-09-17T19:28:36.583Z,11.4
2022-09-17T19:33:36.760Z,11.4
2022-09-17T19:38:36.897Z,11.3
2022-09-17T19:43:37.063Z,11.3
2022-09-17T19:48:37.190Z,11.2
2022-09-17T19:53:36.649Z,11.2
2022-09-17T19:58:36.945Z,11.1
2022-09-17T20:03:37.055Z,11.1
2022-09-17T20:08:46.839Z,11.1
2022-09-17T20:13:37.407Z,11.1
2022-09-17T20:18:36.587Z,10.9
2022-09-17T20:23:36.817Z,10.9
2022-09-17T20:28:37.069Z,10.9
2022-09-17T20:33:37.105Z,10.9
2022-09-17T20:39:19.439Z,10.9
2022-09-17T20:43:36.509Z,10.9
2022-09-17T20:48:36.615Z,10.8
2022-09-17T20:53:36.762Z,10.8
2022-09-17T20:58:36.858Z,10.9
2022-09-17T21:03:37.272Z,10.9
2022-09-17T21:08:36.656Z,11
2022-09-17T21:13:37.420Z,11
2022-09-17T21:18:39.988Z,11
2022-09-17T21:23:37.177Z,11
2022-09-17T21:28:37.310Z,11
2022-09-17T21:33:36.843Z,11
2022-09-17T21:38:37.173Z,11
2022-09-17T21:43:36.796Z,11
2022-09-17T21:48:37.240Z,10.9
2022-09-17T21:53:36.455Z,10.9
2022-09-17T21:58:36.955Z,10.9
2022-09-17T22:03:37.366Z,10.9
2022-09-17T22:08:36.585Z,10.8
2022-09-17T22:13:37.123Z,10.8
2022-09-17T22:18:37.429Z,10.8
2022-09-17T22:23:36.779Z,10.8
2022-09-17T22:28:36.805Z,10.8
2022-09-17T22:33:37.186Z,10.8
2022-09-17T22:38:37.338Z,10.8
2022-09-17T22:43:36.530Z,10.8
2022-09-17T22:48:36.805Z,10.7
2022-09-17T22:53:37.202Z,10.7
2022-09-17T22:58:36.664Z,10.4
2022-09-17T23:03:36.910Z,10.4
2022-09-17T23:08:37.184Z,10.2
2022-09-17T23:13:36.471Z,10.2
2022-09-17T23:18:36.548Z,10.3
2022-09-17T23:23:36.592Z,10.3
2022-09-17T23:28:36.699Z,10.6
2022-09-17T23:33:36.766Z,10.6
2022-09-17T23:38:36.889Z,10.7
2022-09-17T23:43:36.978Z,10.7
2022-09-17T23:48:36.962Z,10.7
2022-09-17T23:53:36.608Z,10.7
2022-09-17T23:58:37.148Z,10.6
